createdAt,value
2022-08-29T00:00:18.116Z,1012.95
2022-08-29T00:01:17.317Z,1012.95
2022-08-29T00:02:17.380Z,1012.94
2022-08-29T00:03:17.290Z,1012.94
2022-08-29T00:04:17.311Z,1012.95
2022-08-29T00:05:17.281Z,1012.91
2022-08-29T00:06:17.256Z,1012.91
2022-08-29T00:07:17.248Z,1012.93
2022-08-29T00:08:17.242Z,1012.92
2022-08-29T00:09:17.223Z,1012.94
2022-08-29T00:10:17.225Z,1012.88
2022-08-29T00:11:17.201Z,1012.96
2022-08-29T00:12:17.192Z,1012.93
2022-08-29T00:13:17.175Z,1012.96
2022-08-29T00:14:20.838Z,1012.99
2022-08-29T00:15:18.172Z,1012.97
2022-08-29T00:16:17.250Z,1013.01
2022-08-29T00:17:17.131Z,1012.98
2022-08-29T00:18:17.117Z,1012.99
2022-08-29T00:19:17.109Z,1013.01
2022-08-29T00:20:17.113Z,1013.03
2022-08-29T00:21:17.083Z,1013.00
2022-08-29T00:22:17.077Z,1012.95
2022-08-29T00:23:17.066Z,1012.99
2022-08-29T00:24:17.057Z,1012.98
2022-08-29T00:25:17.064Z,1012.93
2022-08-29T00:26:17.028Z,1012.96
2022-08-29T00:27:17.014Z,1012.94
2022-08-29T00:28:17.005Z,1012.94
2022-08-29T00:29:16.996Z,1012.95
2022-08-29T00:30:16.993Z,1012.93
2022-08-29T00:31:17.017Z,1012.95
2022-08-29T00:32:16.958Z,1012.94
2022-08-29T00:33:16.950Z,1012.95
2022-08-29T00:34:16.934Z,1012.95
2022-08-29T00:35:16.944Z,1013.01
2022-08-29T00:36:16.912Z,1012.97
2022-08-29T00:37:16.906Z,1012.96
2022-08-29T00:38:16.885Z,1012.95
2022-08-29T00:39:16.882Z,1012.96
2022-08-29T00:40:16.915Z,1012.98
2022-08-29T00:41:16.856Z,1012.99
2022-08-29T00:42:16.845Z,1013.05
2022-08-29T00:43:16.833Z,1013.01
2022-08-29T00:44:16.829Z,1013.00
2022-08-29T00:45:16.832Z,1012.97
2022-08-29T00:46:16.902Z,1012.98
2022-08-29T00:47:16.784Z,1012.96
2022-08-29T00:48:16.774Z,1013.00
2022-08-29T00:49:16.764Z,1012.96
2022-08-29T00:50:16.769Z,1012.93
2022-08-29T00:51:16.746Z,1012.94
2022-08-29T00:52:16.730Z,1012.94
2022-08-29T00:53:16.720Z,1012.96
2022-08-29T00:54:16.713Z,1012.91
2022-08-29T00:55:16.712Z,1012.92
2022-08-29T00:56:16.681Z,1012.92
2022-08-29T00:57:16.672Z,1012.96
2022-08-29T00:58:16.667Z,1012.94
2022-08-29T00:59:16.649Z,1012.93
2022-08-29T01:00:16.659Z,1012.95
2022-08-29T01:01:16.662Z,1012.95
2022-08-29T01:02:16.662Z,1012.99
2022-08-29T01:03:16.599Z,1013.00
2022-08-29T01:04:24.096Z,1012.99
2022-08-29T01:05:17.972Z,1012.99
2022-08-29T01:06:16.565Z,1012.99
2022-08-29T01:07:16.554Z,1012.98
2022-08-29T01:08:16.578Z,1013.01
2022-08-29T01:09:16.536Z,1012.97
2022-08-29T01:10:16.541Z,1012.99
2022-08-29T01:11:16.510Z,1013.00
2022-08-29T01:12:16.500Z,1012.96
2022-08-29T01:13:16.490Z,1012.97
2022-08-29T01:14:16.478Z,1012.99
2022-08-29T01:15:16.464Z,1012.97
2022-08-29T01:16:16.497Z,1013.02
2022-08-29T01:17:16.446Z,1012.99
2022-08-29T01:18:16.558Z,1013.03
2022-08-29T01:19:16.421Z,1013.03
2022-08-29T01:20:16.426Z,1013.07
2022-08-29T01:21:16.399Z,1013.06
2022-08-29T01:22:16.388Z,1013.10
2022-08-29T01:23:16.374Z,1013.11
2022-08-29T01:24:16.359Z,1013.12
2022-08-29T01:25:16.357Z,1013.14
2022-08-29T01:26:16.358Z,1013.13
2022-08-29T01:27:16.329Z,1013.16
2022-08-29T01:28:16.504Z,1013.14
2022-08-29T01:29:16.314Z,1013.17
2022-08-29T01:30:16.316Z,1013.18
2022-08-29T01:31:51.459Z,1013.15
2022-08-29T01:32:17.353Z,1013.17
2022-08-29T01:33:16.263Z,1013.17
2022-08-29T01:34:16.259Z,1013.18
2022-08-29T01:35:16.232Z,1013.19
2022-08-29T01:36:16.240Z,1013.17
2022-08-29T01:37:16.210Z,1013.15
2022-08-29T01:38:16.205Z,1013.18
2022-08-29T01:39:16.189Z,1013.17
2022-08-29T01:40:16.229Z,1013.18
2022-08-29T01:41:18.080Z,1013.18
2022-08-29T01:42:16.157Z,1013.18
2022-08-29T01:43:16.152Z,1013.19
2022-08-29T01:44:16.137Z,1013.16
2022-08-29T01:45:16.159Z,1013.20
2022-08-29T01:46:16.147Z,1013.20
2022-08-29T01:47:16.102Z,1013.22
2022-08-29T01:48:16.372Z,1013.20
2022-08-29T01:49:16.136Z,1013.21
2022-08-29T01:50:16.116Z,1013.21
2022-08-29T01:51:16.075Z,1013.23
2022-08-29T01:52:16.046Z,1013.21
2022-08-29T01:53:16.039Z,1013.26
2022-08-29T01:54:16.025Z,1013.25
2022-08-29T01:55:16.010Z,1013.30
2022-08-29T01:56:16.014Z,1013.28
2022-08-29T01:57:15.982Z,1013.32
2022-08-29T01:58:16.199Z,1013.29
2022-08-29T01:59:15.976Z,1013.32
2022-08-29T02:00:15.954Z,1013.30
2022-08-29T02:01:16.020Z,1013.29
2022-08-29T02:02:16.210Z,1013.27
2022-08-29T02:03:15.917Z,1013.23
2022-08-29T02:04:15.925Z,1013.23
2022-08-29T02:05:15.895Z,1013.23
2022-08-29T02:06:15.902Z,1013.25
2022-08-29T02:07:15.871Z,1013.26
2022-08-29T02:08:16.074Z,1013.22
2022-08-29T02:09:15.850Z,1013.22
2022-08-29T02:10:15.849Z,1013.25
2022-08-29T02:11:15.857Z,1013.27
2022-08-29T02:12:15.816Z,1013.24
2022-08-29T02:13:15.805Z,1013.25
2022-08-29T02:14:18.988Z,1013.25
2022-08-29T02:15:15.779Z,1013.22
2022-08-29T02:16:15.855Z,1013.26
2022-08-29T02:17:15.759Z,1013.25
2022-08-29T02:18:16.160Z,1013.21
2022-08-29T02:19:15.735Z,1013.16
2022-08-29T02:20:15.726Z,1013.20
2022-08-29T02:21:15.741Z,1013.19
2022-08-29T02:22:15.699Z,1013.17
2022-08-29T02:23:30.135Z,1013.16
2022-08-29T02:24:25.454Z,1013.19
2022-08-29T02:25:16.663Z,1013.16
2022-08-29T02:26:15.667Z,1013.18
2022-08-29T02:27:15.645Z,1013.14
2022-08-29T02:28:15.838Z,1013.21
2022-08-29T02:29:15.625Z,1013.17
2022-08-29T02:30:15.613Z,1013.19
2022-08-29T02:31:15.687Z,1013.19
2022-08-29T02:32:15.587Z,1013.16
2022-08-29T02:33:15.572Z,1013.20
2022-08-29T02:34:15.560Z,1013.23
2022-08-29T02:35:15.551Z,1013.23
2022-08-29T02:36:15.554Z,1013.18
2022-08-29T02:37:15.532Z,1013.17
2022-08-29T02:38:15.729Z,1013.21
2022-08-29T02:39:15.506Z,1013.25
2022-08-29T02:40:15.560Z,1013.25
2022-08-29T02:41:15.517Z,1013.27
2022-08-29T02:42:15.472Z,1013.26
2022-08-29T02:43:15.461Z,1013.23
2022-08-29T02:44:15.448Z,1013.26
2022-08-29T02:45:15.434Z,1013.23
2022-08-29T02:46:15.531Z,1013.28
2022-08-29T02:47:15.419Z,1013.34
2022-08-29T02:48:15.651Z,1013.27
2022-08-29T02:49:15.392Z,1013.27
2022-08-29T02:50:15.382Z,1013.31
2022-08-29T02:51:15.386Z,1013.27
2022-08-29T02:52:15.355Z,1013.28
2022-08-29T02:53:15.348Z,1013.28
2022-08-29T02:54:15.344Z,1013.28
2022-08-29T02:55:15.323Z,1013.31
2022-08-29T02:56:15.323Z,1013.29
2022-08-29T02:57:15.308Z,1013.29
2022-08-29T02:58:15.493Z,1013.28
2022-08-29T02:59:15.282Z,1013.28
2022-08-29T03:00:15.274Z,1013.30
2022-08-29T03:01:15.294Z,1013.31
2022-08-29T03:02:15.318Z,1013.31
2022-08-29T03:03:15.234Z,1013.31
2022-08-29T03:04:15.222Z,1013.28
2022-08-29T03:05:15.210Z,1013.27
2022-08-29T03:06:15.234Z,1013.21
2022-08-29T03:07:15.203Z,1013.26
2022-08-29T03:08:15.385Z,1013.19
2022-08-29T03:09:15.165Z,1013.22
2022-08-29T03:10:15.161Z,1013.20
2022-08-29T03:11:16.061Z,1013.20
2022-08-29T03:12:15.133Z,1013.25
2022-08-29T03:13:15.122Z,1013.18
2022-08-29T03:14:16.032Z,1013.19
2022-08-29T03:15:15.098Z,1013.16
2022-08-29T03:16:15.177Z,1013.17
2022-08-29T03:17:15.072Z,1013.18
2022-08-29T03:18:15.301Z,1013.13
2022-08-29T03:19:15.068Z,1013.15
2022-08-29T03:20:15.041Z,1013.14
2022-08-29T03:21:15.060Z,1013.20
2022-08-29T03:22:15.019Z,1013.16
2022-08-29T03:23:15.005Z,1013.20
2022-08-29T03:24:14.993Z,1013.19
2022-08-29T03:25:14.993Z,1013.16
2022-08-29T03:26:15.026Z,1013.14
2022-08-29T03:27:14.958Z,1013.18
2022-08-29T03:28:15.210Z,1013.20
2022-08-29T03:29:14.941Z,1013.17
2022-08-29T03:30:14.929Z,1013.19
2022-08-29T03:31:14.994Z,1013.23
2022-08-29T03:32:14.904Z,1013.23
2022-08-29T03:33:14.891Z,1013.24
2022-08-29T03:34:14.890Z,1013.25
2022-08-29T03:35:14.871Z,1013.22
2022-08-29T03:36:15.082Z,1013.25
2022-08-29T03:37:14.854Z,1013.22
2022-08-29T03:38:15.087Z,1013.25
2022-08-29T03:39:14.831Z,1013.20
2022-08-29T03:40:14.841Z,1013.21
2022-08-29T03:41:14.815Z,1013.19
2022-08-29T03:42:14.794Z,1013.19
2022-08-29T03:43:14.791Z,1013.19
2022-08-29T03:44:14.777Z,1013.18
2022-08-29T03:45:14.754Z,1013.17
2022-08-29T03:46:14.785Z,1013.18
2022-08-29T03:47:14.733Z,1013.19
2022-08-29T03:48:14.816Z,1013.17
2022-08-29T03:49:14.717Z,1013.11
2022-08-29T03:50:14.705Z,1013.15
2022-08-29T03:51:14.710Z,1013.14
2022-08-29T03:52:14.683Z,1013.12
2022-08-29T03:53:14.680Z,1013.13
2022-08-29T03:54:14.658Z,1013.13
2022-08-29T03:55:14.648Z,1013.15
2022-08-29T03:56:18.929Z,1013.13
2022-08-29T03:57:14.640Z,1013.14
2022-08-29T03:58:14.751Z,1013.10
2022-08-29T03:59:14.599Z,1013.16
2022-08-29T04:00:14.592Z,1013.16
2022-08-29T04:01:14.605Z,1013.19
2022-08-29T04:02:14.625Z,1013.17
2022-08-29T04:03:14.656Z,1013.16
2022-08-29T04:04:14.573Z,1013.15
2022-08-29T04:05:14.550Z,1013.20
2022-08-29T04:06:14.537Z,1013.18
2022-08-29T04:07:14.508Z,1013.20
2022-08-29T04:08:14.644Z,1013.18
2022-08-29T04:09:14.498Z,1013.22
2022-08-29T04:10:14.479Z,1013.19
2022-08-29T04:11:14.486Z,1013.22
2022-08-29T04:12:14.455Z,1013.22
2022-08-29T04:13:14.449Z,1013.20
2022-08-29T04:14:14.431Z,1013.21
2022-08-29T04:15:14.417Z,1013.25
2022-08-29T04:16:14.550Z,1013.20
2022-08-29T04:17:14.396Z,1013.22
2022-08-29T04:18:15.685Z,1013.21
2022-08-29T04:19:15.373Z,1013.24
2022-08-29T04:20:14.376Z,1013.22
2022-08-29T04:21:14.373Z,1013.20
2022-08-29T04:22:14.347Z,1013.21
2022-08-29T04:23:14.383Z,1013.24
2022-08-29T04:24:14.382Z,1013.23
2022-08-29T04:25:14.339Z,1013.27
2022-08-29T04:26:35.130Z,1013.29
2022-08-29T04:27:15.302Z,1013.30
2022-08-29T04:28:14.593Z,1013.33
2022-08-29T04:29:14.260Z,1013.34
2022-08-29T04:30:14.274Z,1013.30
2022-08-29T04:31:14.336Z,1013.34
2022-08-29T04:32:14.229Z,1013.32
2022-08-29T04:33:16.263Z,1013.35
2022-08-29T04:34:15.207Z,1013.31
2022-08-29T04:35:14.193Z,1013.33
2022-08-29T04:36:15.076Z,1013.33
2022-08-29T04:37:14.202Z,1013.34
2022-08-29T04:38:14.373Z,1013.30
2022-08-29T04:39:14.150Z,1013.32
2022-08-29T04:40:14.227Z,1013.27
2022-08-29T04:41:14.140Z,1013.31
2022-08-29T04:42:18.230Z,1013.28
2022-08-29T04:43:15.102Z,1013.34
2022-08-29T04:44:14.092Z,1013.32
2022-08-29T04:45:14.083Z,1013.32
2022-08-29T04:46:21.517Z,1013.30
2022-08-29T04:47:15.058Z,1013.34
2022-08-29T04:48:14.081Z,1013.36
2022-08-29T04:49:14.035Z,1013.38
2022-08-29T04:50:14.025Z,1013.41
2022-08-29T04:51:14.029Z,1013.37
2022-08-29T04:52:14.056Z,1013.34
2022-08-29T04:53:13.991Z,1013.32
2022-08-29T04:54:13.980Z,1013.38
2022-08-29T04:55:17.118Z,1013.36
2022-08-29T04:56:14.978Z,1013.36
2022-08-29T04:57:13.947Z,1013.39
2022-08-29T04:58:14.019Z,1013.33
2022-08-29T04:59:13.924Z,1013.34
2022-08-29T05:00:13.925Z,1013.38
2022-08-29T05:01:13.970Z,1013.40
2022-08-29T05:02:13.890Z,1013.39
2022-08-29T05:03:13.943Z,1013.44
2022-08-29T05:04:14.698Z,1013.44
2022-08-29T05:05:13.888Z,1013.43
2022-08-29T05:06:13.861Z,1013.38
2022-08-29T05:07:13.835Z,1013.41
2022-08-29T05:08:13.981Z,1013.44
2022-08-29T05:09:13.812Z,1013.46
2022-08-29T05:10:13.803Z,1013.45
2022-08-29T05:11:13.801Z,1013.42
2022-08-29T05:12:13.776Z,1013.45
2022-08-29T05:13:13.765Z,1013.41
2022-08-29T05:14:13.755Z,1013.45
2022-08-29T05:15:13.754Z,1013.44
2022-08-29T05:16:13.813Z,1013.45
2022-08-29T05:17:13.723Z,1013.50
2022-08-29T05:18:13.884Z,1013.53
2022-08-29T05:19:16.033Z,1013.55
2022-08-29T05:20:13.780Z,1013.56
2022-08-29T05:21:13.691Z,1013.61
2022-08-29T05:22:13.661Z,1013.60
2022-08-29T05:23:14.013Z,1013.59
2022-08-29T05:24:13.642Z,1013.67
2022-08-29T05:25:18.053Z,1013.65
2022-08-29T05:26:13.640Z,1013.67
2022-08-29T05:27:13.618Z,1013.69
2022-08-29T05:28:13.793Z,1013.66
2022-08-29T05:29:13.585Z,1013.69
2022-08-29T05:30:13.573Z,1013.73
2022-08-29T05:31:13.958Z,1013.69
2022-08-29T05:32:13.551Z,1013.68
2022-08-29T05:33:13.540Z,1013.73
2022-08-29T05:34:32.066Z,1013.71
2022-08-29T05:35:14.515Z,1013.74
2022-08-29T05:36:13.527Z,1013.75
2022-08-29T05:37:13.506Z,1013.76
2022-08-29T05:38:13.484Z,1013.77
2022-08-29T05:39:13.822Z,1013.69
2022-08-29T05:40:13.491Z,1013.69
2022-08-29T05:41:13.467Z,1013.74
2022-08-29T05:42:13.436Z,1013.67
2022-08-29T05:43:13.435Z,1013.69
2022-08-29T05:44:13.417Z,1013.62
2022-08-29T05:45:13.402Z,1013.70
2022-08-29T05:46:13.460Z,1013.66
2022-08-29T05:47:14.386Z,1013.67
2022-08-29T05:48:13.517Z,1013.65
2022-08-29T05:49:13.358Z,1013.66
2022-08-29T05:50:13.347Z,1013.63
2022-08-29T05:51:13.354Z,1013.61
2022-08-29T05:52:13.331Z,1013.65
2022-08-29T05:53:13.315Z,1013.60
2022-08-29T05:54:13.302Z,1013.62
2022-08-29T05:55:13.288Z,1013.67
2022-08-29T05:56:13.294Z,1013.67
2022-08-29T05:57:18.725Z,1013.67
2022-08-29T05:58:14.461Z,1013.64
2022-08-29T05:59:13.257Z,1013.68
2022-08-29T06:00:13.240Z,1013.70
2022-08-29T06:01:13.236Z,1013.68
2022-08-29T06:02:13.384Z,1013.66
2022-08-29T06:03:13.318Z,1013.70
2022-08-29T06:04:13.191Z,1013.73
2022-08-29T06:05:13.179Z,1013.69
2022-08-29T06:06:13.180Z,1013.71
2022-08-29T06:07:13.157Z,1013.72
2022-08-29T06:08:13.161Z,1013.67
2022-08-29T06:09:13.138Z,1013.70
2022-08-29T06:10:13.124Z,1013.68
2022-08-29T06:11:13.121Z,1013.68
2022-08-29T06:12:13.100Z,1013.71
2022-08-29T06:13:13.089Z,1013.69
2022-08-29T06:14:13.077Z,1013.67
2022-08-29T06:15:13.060Z,1013.69
2022-08-29T06:16:13.174Z,1013.68
2022-08-29T06:17:13.043Z,1013.75
2022-08-29T06:18:13.046Z,1013.71
2022-08-29T06:19:13.015Z,1013.76
2022-08-29T06:20:13.005Z,1013.73
2022-08-29T06:21:13.013Z,1013.70
2022-08-29T06:22:12.982Z,1013.69
2022-08-29T06:23:12.976Z,1013.72
2022-08-29T06:24:12.958Z,1013.78
2022-08-29T06:25:37.480Z,1013.77
2022-08-29T06:26:13.958Z,1013.78
2022-08-29T06:27:12.931Z,1013.79
2022-08-29T06:28:13.138Z,1013.79
2022-08-29T06:29:13.904Z,1013.84
2022-08-29T06:30:12.892Z,1013.78
2022-08-29T06:31:12.926Z,1013.81
2022-08-29T06:32:12.871Z,1013.77
2022-08-29T06:33:12.862Z,1013.78
2022-08-29T06:34:12.851Z,1013.81
2022-08-29T06:35:12.838Z,1013.85
2022-08-29T06:36:12.882Z,1013.80
2022-08-29T06:37:12.822Z,1013.83
2022-08-29T06:38:14.128Z,1013.87
2022-08-29T06:39:12.790Z,1013.88
2022-08-29T06:40:12.805Z,1013.85
2022-08-29T06:41:12.852Z,1013.92
2022-08-29T06:42:12.763Z,1013.91
2022-08-29T06:43:12.741Z,1013.93
2022-08-29T06:44:12.730Z,1013.92
2022-08-29T06:45:12.720Z,1013.93
2022-08-29T06:46:12.772Z,1013.91
2022-08-29T06:47:12.696Z,1013.93
2022-08-29T06:48:13.855Z,1013.97
2022-08-29T06:49:12.685Z,1013.96
2022-08-29T06:50:12.659Z,1013.98
2022-08-29T06:51:12.664Z,1013.95
2022-08-29T06:52:12.638Z,1013.96
2022-08-29T06:53:26.853Z,1013.95
2022-08-29T06:54:13.616Z,1013.95
2022-08-29T06:55:12.607Z,1013.94
2022-08-29T06:56:12.627Z,1013.90
2022-08-29T06:57:12.584Z,1013.94
2022-08-29T06:58:12.564Z,1013.99
2022-08-29T06:59:12.568Z,1013.97
2022-08-29T07:00:22.574Z,1014.01
2022-08-29T07:01:13.625Z,1014.03
2022-08-29T07:02:12.548Z,1014.00
2022-08-29T07:03:12.650Z,1014.05
2022-08-29T07:04:14.717Z,1014.06
2022-08-29T07:05:12.496Z,1014.06
2022-08-29T07:06:12.489Z,1014.04
2022-08-29T07:07:12.461Z,1014.08
2022-08-29T07:08:12.459Z,1014.08
2022-08-29T07:09:12.437Z,1014.09
2022-08-29T07:10:12.436Z,1014.10
2022-08-29T07:11:12.434Z,1014.10
2022-08-29T07:12:12.407Z,1014.10
2022-08-29T07:13:12.406Z,1014.15
2022-08-29T07:14:12.391Z,1014.14
2022-08-29T07:15:12.374Z,1014.10
2022-08-29T07:16:12.458Z,1014.15
2022-08-29T07:17:12.354Z,1014.13
2022-08-29T07:18:13.346Z,1014.17
2022-08-29T07:19:12.323Z,1014.23
2022-08-29T07:20:12.399Z,1014.18
2022-08-29T07:21:14.892Z,1014.25
2022-08-29T07:22:12.303Z,1014.26
2022-08-29T07:23:12.311Z,1014.24
2022-08-29T07:24:12.268Z,1014.24
2022-08-29T07:25:12.257Z,1014.27
2022-08-29T07:26:12.296Z,1014.27
2022-08-29T07:27:12.243Z,1014.24
2022-08-29T07:28:12.225Z,1014.22
2022-08-29T07:29:12.211Z,1014.23
2022-08-29T07:30:12.241Z,1014.23
2022-08-29T07:31:12.320Z,1014.23
2022-08-29T07:32:12.192Z,1014.24
2022-08-29T07:33:12.164Z,1014.19
2022-08-29T07:34:12.352Z,1014.25
2022-08-29T07:35:13.549Z,1014.21
2022-08-29T07:36:12.176Z,1014.21
2022-08-29T07:37:12.121Z,1014.22
2022-08-29T07:38:12.235Z,1014.26
2022-08-29T07:39:12.117Z,1014.24
2022-08-29T07:40:12.190Z,1014.30
2022-08-29T07:41:12.109Z,1014.24
2022-08-29T07:42:12.072Z,1014.32
2022-08-29T07:43:14.487Z,1014.32
2022-08-29T07:44:13.051Z,1014.32
2022-08-29T07:45:12.032Z,1014.31
2022-08-29T07:46:12.162Z,1014.28
2022-08-29T07:47:12.011Z,1014.28
2022-08-29T07:48:11.988Z,1014.24
2022-08-29T07:49:11.984Z,1014.28
2022-08-29T07:50:12.005Z,1014.30
2022-08-29T07:51:11.978Z,1014.28
2022-08-29T07:52:11.952Z,1014.25
2022-08-29T07:53:11.997Z,1014.31
2022-08-29T07:54:11.924Z,1014.32
2022-08-29T07:55:11.911Z,1014.26
2022-08-29T07:56:11.918Z,1014.33
2022-08-29T07:57:11.901Z,1014.33
2022-08-29T07:58:11.880Z,1014.43
2022-08-29T07:59:11.863Z,1014.37
2022-08-29T08:00:12.018Z,1014.38
2022-08-29T08:01:21.144Z,1014.40
2022-08-29T08:02:12.915Z,1014.45
2022-08-29T08:03:11.856Z,1014.41
2022-08-29T08:04:11.829Z,1014.40
2022-08-29T08:05:11.812Z,1014.41
2022-08-29T08:06:11.837Z,1014.41
2022-08-29T08:07:13.840Z,1014.41
2022-08-29T08:08:15.045Z,1014.43
2022-08-29T08:09:11.784Z,1014.39
2022-08-29T08:10:11.870Z,1014.37
2022-08-29T08:11:11.845Z,1014.36
2022-08-29T08:12:11.775Z,1014.38
2022-08-29T08:13:11.730Z,1014.40
2022-08-29T08:14:11.726Z,1014.38
2022-08-29T08:15:11.710Z,1014.39
2022-08-29T08:16:11.692Z,1014.46
2022-08-29T08:17:11.680Z,1014.45
2022-08-29T08:18:11.750Z,1014.44
2022-08-29T08:19:11.656Z,1014.43
2022-08-29T08:20:11.751Z,1014.52
2022-08-29T08:21:11.641Z,1014.48
2022-08-29T08:22:11.623Z,1014.47
2022-08-29T08:23:14.780Z,1014.47
2022-08-29T08:24:14.941Z,1014.52
2022-08-29T08:25:14.153Z,1014.53
2022-08-29T08:26:11.654Z,1014.50
2022-08-29T08:27:11.558Z,1014.55
2022-08-29T08:28:11.680Z,1014.55
2022-08-29T08:29:11.559Z,1014.52
2022-08-29T08:30:11.584Z,1014.56
2022-08-29T08:31:11.659Z,1014.59
2022-08-29T08:32:11.511Z,1014.58
2022-08-29T08:33:11.570Z,1014.54
2022-08-29T08:34:11.474Z,1014.52
2022-08-29T08:35:11.518Z,1014.59
2022-08-29T08:36:11.562Z,1014.57
2022-08-29T08:37:11.449Z,1014.62
2022-08-29T08:38:11.545Z,1014.66
2022-08-29T08:39:11.441Z,1014.59
2022-08-29T08:40:11.489Z,1014.69
2022-08-29T08:41:11.449Z,1014.64
2022-08-29T08:42:11.409Z,1014.64
2022-08-29T08:43:11.469Z,1014.67
2022-08-29T08:44:11.360Z,1014.65
2022-08-29T08:45:11.363Z,1014.64
2022-08-29T08:46:11.493Z,1014.69
2022-08-29T08:47:11.341Z,1014.65
2022-08-29T08:48:11.334Z,1014.65
2022-08-29T08:49:11.317Z,1014.64
2022-08-29T08:50:11.308Z,1014.69
2022-08-29T08:51:11.297Z,1014.66
2022-08-29T08:52:11.300Z,1014.67
2022-08-29T08:53:11.272Z,1014.60
2022-08-29T08:54:11.256Z,1014.60
2022-08-29T08:55:11.262Z,1014.60
2022-08-29T08:56:11.245Z,1014.58
2022-08-29T08:57:11.228Z,1014.55
2022-08-29T08:58:11.354Z,1014.55
2022-08-29T08:59:11.194Z,1014.55
2022-08-29T09:00:11.185Z,1014.53
2022-08-29T09:01:11.279Z,1014.53
2022-08-29T09:02:11.244Z,1014.54
2022-08-29T09:03:11.195Z,1014.50
2022-08-29T09:04:11.139Z,1014.55
2022-08-29T09:05:11.129Z,1014.54
2022-08-29T09:06:11.143Z,1014.50
2022-08-29T09:07:11.145Z,1014.57
2022-08-29T09:08:11.116Z,1014.52
2022-08-29T09:09:12.054Z,1014.49
2022-08-29T09:10:11.071Z,1014.54
2022-08-29T09:11:11.175Z,1014.60
2022-08-29T09:12:11.069Z,1014.56
2022-08-29T09:13:11.098Z,1014.60
2022-08-29T09:14:11.036Z,1014.61
2022-08-29T09:15:13.705Z,1014.61
2022-08-29T09:16:11.033Z,1014.62
2022-08-29T09:17:11.063Z,1014.62
2022-08-29T09:18:13.605Z,1014.69
2022-08-29T09:19:10.986Z,1014.61
2022-08-29T09:20:10.954Z,1014.63
2022-08-29T09:21:37.187Z,1014.65
2022-08-29T09:22:12.006Z,1014.65
2022-08-29T09:23:10.935Z,1014.64
2022-08-29T09:24:10.906Z,1014.66
2022-08-29T09:25:10.904Z,1014.72
2022-08-29T09:26:10.883Z,1014.71
2022-08-29T09:27:10.954Z,1014.71
2022-08-29T09:28:10.874Z,1014.77
2022-08-29T09:29:10.848Z,1014.73
2022-08-29T09:30:10.848Z,1014.73
2022-08-29T09:31:10.829Z,1014.72
2022-08-29T09:32:10.988Z,1014.71
2022-08-29T09:33:10.809Z,1014.71
2022-08-29T09:34:11.762Z,1014.74
2022-08-29T09:35:10.813Z,1014.72
2022-08-29T09:36:10.779Z,1014.80
2022-08-29T09:37:10.816Z,1014.78
2022-08-29T09:38:10.747Z,1014.73
2022-08-29T09:39:10.727Z,1014.76
2022-08-29T09:40:10.931Z,1014.74
2022-08-29T09:41:10.718Z,1014.72
2022-08-29T09:42:10.810Z,1014.75
2022-08-29T09:43:10.688Z,1014.75
2022-08-29T09:44:10.672Z,1014.74
2022-08-29T09:45:10.666Z,1014.74
2022-08-29T09:46:10.789Z,1014.67
2022-08-29T09:47:10.746Z,1014.72
2022-08-29T09:48:10.637Z,1014.70
2022-08-29T09:49:10.617Z,1014.74
2022-08-29T09:50:10.616Z,1014.76
2022-08-29T09:51:10.595Z,1014.72
2022-08-29T09:52:10.600Z,1014.70
2022-08-29T09:53:24.417Z,1014.77
2022-08-29T09:54:11.567Z,1014.77
2022-08-29T09:55:10.764Z,1014.73
2022-08-29T09:56:10.566Z,1014.73
2022-08-29T09:57:10.661Z,1014.74
2022-08-29T09:58:10.532Z,1014.75
2022-08-29T09:59:10.504Z,1014.72
2022-08-29T10:00:10.496Z,1014.76
2022-08-29T10:01:11.688Z,1014.73
2022-08-29T10:02:10.515Z,1014.68
2022-08-29T10:03:10.488Z,1014.72
2022-08-29T10:04:10.449Z,1014.74
2022-08-29T10:05:13.086Z,1014.76
2022-08-29T10:06:10.429Z,1014.76
2022-08-29T10:07:10.419Z,1014.76
2022-08-29T10:08:10.423Z,1014.75
2022-08-29T10:09:10.397Z,1014.75
2022-08-29T10:10:10.378Z,1014.75
2022-08-29T10:11:10.378Z,1014.81
2022-08-29T10:12:10.372Z,1014.74
2022-08-29T10:13:10.412Z,1014.74
2022-08-29T10:14:12.661Z,1014.77
2022-08-29T10:15:10.325Z,1014.73
2022-08-29T10:16:10.408Z,1014.78
2022-08-29T10:17:10.309Z,1014.73
2022-08-29T10:18:10.312Z,1014.76
2022-08-29T10:19:10.285Z,1014.76
2022-08-29T10:20:10.274Z,1014.76
2022-08-29T10:21:10.354Z,1014.75
2022-08-29T10:22:10.273Z,1014.76
2022-08-29T10:23:10.256Z,1014.81
2022-08-29T10:24:10.300Z,1014.76
2022-08-29T10:25:10.221Z,1014.77
2022-08-29T10:26:10.200Z,1014.82
2022-08-29T10:27:10.196Z,1014.75
2022-08-29T10:28:10.198Z,1014.78
2022-08-29T10:29:10.180Z,1014.83
2022-08-29T10:30:10.164Z,1014.81
2022-08-29T10:31:10.319Z,1014.86
2022-08-29T10:32:10.149Z,1014.81
2022-08-29T10:33:10.154Z,1014.87
2022-08-29T10:34:10.117Z,1014.82
2022-08-29T10:35:10.109Z,1014.85
2022-08-29T10:36:10.099Z,1014.86
2022-08-29T10:37:10.081Z,1014.88
2022-08-29T10:38:10.096Z,1014.87
2022-08-29T10:39:10.060Z,1014.85
2022-08-29T10:40:10.177Z,1014.84
2022-08-29T10:41:11.043Z,1014.82
2022-08-29T10:42:10.030Z,1014.84
2022-08-29T10:43:10.018Z,1014.88
2022-08-29T10:44:10.074Z,1014.82
2022-08-29T10:45:09.998Z,1014.87
2022-08-29T10:46:10.102Z,1014.93
2022-08-29T10:47:09.968Z,1014.87
2022-08-29T10:48:09.975Z,1014.91
2022-08-29T10:49:09.949Z,1014.92
2022-08-29T10:50:16.988Z,1014.97
2022-08-29T10:51:10.920Z,1014.94
2022-08-29T10:52:09.910Z,1014.92
2022-08-29T10:53:09.920Z,1014.95
2022-08-29T10:54:09.901Z,1014.90
2022-08-29T10:55:09.879Z,1014.93
2022-08-29T10:56:09.865Z,1014.90
2022-08-29T10:57:09.857Z,1014.94
2022-08-29T10:58:12.649Z,1014.94
2022-08-29T10:59:09.827Z,1014.97
2022-08-29T11:00:09.823Z,1014.90
2022-08-29T11:01:09.867Z,1014.96
2022-08-29T11:02:09.805Z,1014.93
2022-08-29T11:03:09.817Z,1014.92
2022-08-29T11:04:09.865Z,1014.92
2022-08-29T11:05:09.761Z,1014.96
2022-08-29T11:06:09.750Z,1014.87
2022-08-29T11:07:09.745Z,1014.91
2022-08-29T11:08:11.737Z,1014.87
2022-08-29T11:09:09.722Z,1014.88
2022-08-29T11:10:09.707Z,1014.84
2022-08-29T11:11:09.700Z,1014.86
2022-08-29T11:12:09.685Z,1014.80
2022-08-29T11:13:10.712Z,1014.77
2022-08-29T11:14:09.668Z,1014.76
2022-08-29T11:15:09.650Z,1014.78
2022-08-29T11:16:09.714Z,1014.72
2022-08-29T11:17:09.628Z,1014.68
2022-08-29T11:18:09.616Z,1014.68
2022-08-29T11:19:09.622Z,1014.66
2022-08-29T11:20:09.600Z,1014.66
2022-08-29T11:21:09.592Z,1014.66
2022-08-29T11:22:09.589Z,1014.63
2022-08-29T11:23:09.561Z,1014.70
2022-08-29T11:24:09.563Z,1014.64
2022-08-29T11:25:09.535Z,1014.61
2022-08-29T11:26:09.523Z,1014.59
2022-08-29T11:27:09.513Z,1014.60
2022-08-29T11:28:09.529Z,1014.65
2022-08-29T11:29:09.510Z,1014.60
2022-08-29T11:30:09.481Z,1014.69
2022-08-29T11:31:09.527Z,1014.60
2022-08-29T11:32:09.464Z,1014.62
2022-08-29T11:33:09.446Z,1014.56
2022-08-29T11:34:09.437Z,1014.63
2022-08-29T11:35:09.441Z,1014.55
2022-08-29T11:36:09.417Z,1014.55
2022-08-29T11:37:09.403Z,1014.59
2022-08-29T11:38:09.387Z,1014.63
2022-08-29T11:39:09.384Z,1014.65
2022-08-29T11:40:09.410Z,1014.54
2022-08-29T11:42:10.394Z,1014.68
2022-08-29T11:43:12.424Z,1014.68
2022-08-29T11:44:09.338Z,1014.60
2022-08-29T11:45:09.333Z,1014.63
2022-08-29T11:46:09.305Z,1014.65
2022-08-29T11:47:09.322Z,1014.62
2022-08-29T11:48:09.274Z,1014.61
2022-08-29T11:49:09.265Z,1014.68
2022-08-29T11:50:09.281Z,1014.63
2022-08-29T11:51:09.260Z,1014.67
2022-08-29T11:52:09.228Z,1014.61
2022-08-29T11:53:09.218Z,1014.57
2022-08-29T11:54:09.222Z,1014.60
2022-08-29T11:55:09.213Z,1014.60
2022-08-29T11:56:09.190Z,1014.57
2022-08-29T11:57:09.175Z,1014.61
2022-08-29T11:58:11.693Z,1014.67
2022-08-29T11:59:09.154Z,1014.62
2022-08-29T12:00:09.140Z,1014.61
2022-08-29T12:01:09.138Z,1014.68
2022-08-29T12:02:09.144Z,1014.61
2022-08-29T12:03:15.124Z,1014.68
2022-08-29T12:04:10.183Z,1014.67
2022-08-29T12:05:09.090Z,1014.78
2022-08-29T12:06:09.165Z,1014.71